createdAt,value
2022-08-29T00:02:49.981Z,67.16
2022-08-29T00:05:53.258Z,67.13
2022-08-29T00:08:57.361Z,67.06
2022-08-29T00:12:00.594Z,67.08
2022-08-29T00:15:06.682Z,67.14
2022-08-29T00:18:09.756Z,67.16
2022-08-29T00:21:13.162Z,67.28
2022-08-29T00:24:17.110Z,67.29
2022-08-29T00:27:20.062Z,67.27
2022-08-29T00:30:24.021Z,67.16
2022-08-29T00:33:27.033Z,67.20
2022-08-29T00:36:30.470Z,67.14
2022-08-29T00:39:33.563Z,67.19
2022-08-29T00:42:37.997Z,67.03
2022-08-29T00:45:53.284Z,67.05
2022-08-29T00:49:01.950Z,67.12
2022-08-29T00:52:11.384Z,67.14
2022-08-29T00:55:22.580Z,67.20
2022-08-29T00:58:31.032Z,67.11
2022-08-29T01:01:34.046Z,67.01
2022-08-29T01:04:37.884Z,67.11
2022-08-29T01:07:41.455Z,67.19
2022-08-29T01:11:03.055Z,67.14
2022-08-29T01:14:06.121Z,67.01
2022-08-29T01:17:10.535Z,67.07
2022-08-29T01:20:55.326Z,67.07
2022-08-29T01:24:27.016Z,66.96
2022-08-29T01:27:34.464Z,66.96
2022-08-29T01:30:56.028Z,67.01
2022-08-29T01:33:59.709Z,66.95
2022-08-29T01:37:05.916Z,66.84
2022-08-29T01:40:10.089Z,66.93
2022-08-29T01:43:13.085Z,66.94
2022-08-29T01:46:20.758Z,66.86
2022-08-29T01:49:24.886Z,66.86
2022-08-29T01:52:28.211Z,66.87
2022-08-29T01:55:31.131Z,66.82
2022-08-29T01:58:33.993Z,66.79
2022-08-29T02:01:40.010Z,66.76
2022-08-29T02:04:46.126Z,66.72
2022-08-29T02:07:49.691Z,66.70
2022-08-29T02:10:52.957Z,66.66
2022-08-29T02:13:58.525Z,66.63
2022-08-29T02:17:02.857Z,66.62
2022-08-29T02:20:08.470Z,66.65
2022-08-29T02:23:29.948Z,66.66
2022-08-29T02:26:34.412Z,66.62
2022-08-29T02:29:38.421Z,66.66
2022-08-29T02:32:41.490Z,66.72
2022-08-29T02:35:46.138Z,66.66
2022-08-29T02:38:49.882Z,66.61
2022-08-29T02:41:53.031Z,66.47
2022-08-29T02:44:56.972Z,66.60
2022-08-29T02:47:59.958Z,66.59
2022-08-29T02:51:02.872Z,66.65
2022-08-29T02:54:05.907Z,66.57
2022-08-29T02:57:08.814Z,66.57
2022-08-29T03:00:18.318Z,66.54
2022-08-29T03:03:21.274Z,66.63
2022-08-29T03:06:24.278Z,66.61
2022-08-29T03:09:27.153Z,66.54
2022-08-29T03:12:30.193Z,66.57
2022-08-29T03:15:35.442Z,66.51
2022-08-29T03:18:38.732Z,66.64
2022-08-29T03:21:43.569Z,66.46
2022-08-29T03:24:46.455Z,66.49
2022-08-29T03:27:49.536Z,66.50
2022-08-29T03:30:52.446Z,66.61
2022-08-29T03:33:56.698Z,66.55
2022-08-29T03:36:59.943Z,66.33
2022-08-29T03:40:05.975Z,66.45
2022-08-29T03:43:10.464Z,66.38
2022-08-29T03:46:13.382Z,66.41
2022-08-29T03:49:16.323Z,66.39
2022-08-29T03:52:19.236Z,66.27
2022-08-29T03:55:22.231Z,66.34
2022-08-29T03:58:25.341Z,66.35
2022-08-29T04:01:29.697Z,66.27
2022-08-29T04:04:50.852Z,66.26
2022-08-29T04:07:58.907Z,66.27
2022-08-29T04:11:01.846Z,66.19
2022-08-29T04:14:04.849Z,66.14
2022-08-29T04:17:10.306Z,66.12
2022-08-29T04:20:14.272Z,66.12
2022-08-29T04:23:17.170Z,66.23
2022-08-29T04:26:36.455Z,66.10
2022-08-29T04:29:39.990Z,66.08
2022-08-29T04:32:44.548Z,65.95
2022-08-29T04:35:47.504Z,65.93
2022-08-29T04:38:50.650Z,65.95
2022-08-29T04:41:53.592Z,65.98
2022-08-29T04:44:57.469Z,65.91
2022-08-29T04:48:03.529Z,65.86
2022-08-29T04:51:06.816Z,65.86
2022-08-29T04:54:10.002Z,65.91
2022-08-29T04:57:12.903Z,65.80
2022-08-29T05:00:19.890Z,65.72
2022-08-29T05:03:23.735Z,65.75
2022-08-29T05:06:26.755Z,65.76
2022-08-29T05:09:29.768Z,65.69
2022-08-29T05:12:33.858Z,65.69
2022-08-29T05:15:38.782Z,65.60
2022-08-29T05:18:44.293Z,65.62
2022-08-29T05:21:47.309Z,65.58
2022-08-29T05:24:53.539Z,65.52
2022-08-29T05:27:56.489Z,65.63
2022-08-29T05:31:00.387Z,65.58
2022-08-29T05:34:32.024Z,65.61
2022-08-29T05:37:28.119Z,65.59
2022-08-29T05:40:31.485Z,65.58
2022-08-29T05:43:35.018Z,65.57
2022-08-29T05:46:37.950Z,65.46
2022-08-29T05:49:43.048Z,65.37
2022-08-29T05:52:45.964Z,65.34
2022-08-29T05:55:49.026Z,65.40
2022-08-29T05:58:52.030Z,65.34
2022-08-29T06:01:54.967Z,65.30
2022-08-29T06:04:59.408Z,65.26
2022-08-29T06:08:02.795Z,65.44
2022-08-29T06:11:05.936Z,65.46
2022-08-29T06:14:08.915Z,65.35
2022-08-29T06:25:39.807Z,65.34
2022-08-29T06:28:45.953Z,65.23
2022-08-29T06:31:47.559Z,65.17
2022-08-29T06:34:49.488Z,65.19
2022-08-29T06:37:51.019Z,65.06
2022-08-29T06:40:52.634Z,64.94
2022-08-29T06:43:56.199Z,64.80
2022-08-29T06:46:58.528Z,64.86
2022-08-29T06:50:00.232Z,64.80
2022-08-29T06:53:26.090Z,64.70
2022-08-29T06:56:23.863Z,64.57
2022-08-29T06:59:28.283Z,64.47
2022-08-29T07:02:30.001Z,64.42
2022-08-29T07:05:32.640Z,64.29
2022-08-29T07:08:35.331Z,64.18
2022-08-29T07:11:41.256Z,64.22
2022-08-29T07:14:43.245Z,64.18
2022-08-29T07:17:45.303Z,63.81
2022-08-29T07:20:46.872Z,63.93
2022-08-29T07:23:49.836Z,63.85
2022-08-29T07:26:51.924Z,63.87
2022-08-29T07:29:53.464Z,63.71
2022-08-29T07:32:55.199Z,63.53
2022-08-29T07:36:01.027Z,63.41
2022-08-29T07:39:09.988Z,63.39
2022-08-29T07:42:11.628Z,63.14
2022-08-29T07:45:17.496Z,62.91
2022-08-29T07:48:22.938Z,62.52
2022-08-29T07:51:26.158Z,62.19
2022-08-29T07:54:27.803Z,62.20
2022-08-29T07:57:29.446Z,62.05
2022-08-29T08:00:31.384Z,61.78
2022-08-29T08:03:33.493Z,61.85
2022-08-29T08:06:36.140Z,61.50
2022-08-29T08:09:37.873Z,61.28
2022-08-29T08:12:39.516Z,61.21
2022-08-29T08:15:41.138Z,61.07
2022-08-29T08:18:44.031Z,61.18
2022-08-29T08:21:49.848Z,60.84
2022-08-29T08:24:52.668Z,60.74
2022-08-29T08:27:55.346Z,60.88
2022-08-29T08:31:03.600Z,60.70
2022-08-29T08:34:07.407Z,60.42
2022-08-29T08:37:10.091Z,60.24
2022-08-29T08:40:53.811Z,60.15
2022-08-29T08:43:59.998Z,60.02
2022-08-29T08:47:07.128Z,59.99
2022-08-29T08:50:16.512Z,59.74
2022-08-29T08:53:36.707Z,59.52
2022-08-29T08:56:43.692Z,59.14
2022-08-29T08:59:58.469Z,58.94
2022-08-29T09:03:25.682Z,58.63
2022-08-29T09:06:48.276Z,58.32
2022-08-29T09:10:08.543Z,57.95
2022-08-29T09:13:32.767Z,57.65
2022-08-29T09:16:40.622Z,57.37
2022-08-29T09:19:43.783Z,57.17
2022-08-29T09:22:58.313Z,57.06
2022-08-29T09:25:59.956Z,56.89
2022-08-29T09:29:01.751Z,56.60
2022-08-29T09:32:17.759Z,56.37
2022-08-29T09:35:30.370Z,56.13
2022-08-29T09:38:35.206Z,55.90
2022-08-29T09:41:37.123Z,55.76
2022-08-29T09:44:39.785Z,55.66
2022-08-29T09:47:41.693Z,55.59
2022-08-29T09:50:43.375Z,55.46
2022-08-29T09:53:45.013Z,54.98
2022-08-29T09:56:51.993Z,55.03
2022-08-29T10:00:13.824Z,54.96
2022-08-29T10:03:22.129Z,54.45
2022-08-29T10:06:30.683Z,53.86
2022-08-29T10:09:32.299Z,53.77
2022-08-29T10:12:42.665Z,53.27
2022-08-29T10:16:02.750Z,53.16
2022-08-29T10:19:12.821Z,52.95
2022-08-29T10:22:38.140Z,52.81
2022-08-29T10:25:40.818Z,52.33
2022-08-29T10:29:11.131Z,52.32
2022-08-29T10:32:42.630Z,51.68
2022-08-29T10:36:00.616Z,51.44
2022-08-29T10:39:15.378Z,51.16
2022-08-29T10:42:21.252Z,51.13
2022-08-29T10:45:39.438Z,50.84
2022-08-29T10:48:48.445Z,50.49
2022-08-29T10:52:16.427Z,50.08
2022-08-29T10:55:51.960Z,50.38
2022-08-29T10:58:56.742Z,50.02
2022-08-29T11:02:09.853Z,49.74
2022-08-29T11:05:21.559Z,49.68
2022-08-29T11:08:30.245Z,49.64
2022-08-29T11:11:33.493Z,49.63
2022-08-29T11:15:01.670Z,49.49
2022-08-29T11:18:36.211Z,49.26
2022-08-29T11:21:51.097Z,48.95
2022-08-29T11:25:04.931Z,49.01
2022-08-29T11:28:34.179Z,48.75
2022-08-29T11:32:11.661Z,48.47
2022-08-29T11:35:20.038Z,48.46
2022-08-29T11:38:33.595Z,48.14
2022-08-29T11:41:41.337Z,47.68
2022-08-29T11:44:53.569Z,47.54
2022-08-29T11:48:01.163Z,47.52
2022-08-29T11:51:40.889Z,47.22
2022-08-29T11:54:42.449Z,47.24
2022-08-29T11:57:45.616Z,47.28
2022-08-29T12:00:50.794Z,47.30
2022-08-29T12:03:55.344Z,47.26
2022-08-29T12:07:01.193Z,47.17
2022-08-29T12:10:10.688Z,47.07
2022-08-29T12:13:47.582Z,46.71
2022-08-29T12:16:52.932Z,46.45
2022-08-29T12:20:07.074Z,46.39
2022-08-29T12:23:17.882Z,46.10
2022-08-29T12:26:37.983Z,45.97
2022-08-29T12:29:44.562Z,45.92
2022-08-29T12:32:57.546Z,45.99
2022-08-29T12:36:06.798Z,45.82
2022-08-29T12:39:20.809Z,45.81
2022-08-29T12:42:44.696Z,45.66
2022-08-29T12:45:48.457Z,45.42
2022-08-29T12:48:57.500Z,45.09
2022-08-29T12:52:04.871Z,44.90
2022-08-29T12:55:28.912Z,44.85
2022-08-29T12:58:38.367Z,44.80
2022-08-29T13:01:40.153Z,44.80
2022-08-29T13:04:43.183Z,44.93
2022-08-29T13:07:57.824Z,45.05
2022-08-29T13:11:02.798Z,44.89
2022-08-29T13:14:10.485Z,44.87
2022-08-29T13:17:14.698Z,44.88
2022-08-29T13:20:47.760Z,44.85
2022-08-29T13:24:02.552Z,45.28
2022-08-29T13:27:06.471Z,45.21
2022-08-29T13:30:08.848Z,44.77
2022-08-29T13:33:34.579Z,44.87
2022-08-29T13:36:59.122Z,44.84
2022-08-29T13:40:32.919Z,44.61
2022-08-29T13:43:42.618Z,44.53
2022-08-29T13:46:46.713Z,44.35
2022-08-29T13:49:49.264Z,44.34
2022-08-29T13:52:52.800Z,44.27
2022-08-29T13:55:54.496Z,44.06
2022-08-29T13:58:57.178Z,43.88
2022-08-29T14:02:15.281Z,43.67
2022-08-29T14:05:17.554Z,43.50
2022-08-29T14:08:19.399Z,43.26
2022-08-29T14:11:20.926Z,43.28
2022-08-29T14:14:22.594Z,42.95
2022-08-29T14:17:24.394Z,42.98
2022-08-29T14:20:26.036Z,42.78
2022-08-29T14:23:27.851Z,42.67
2022-08-29T14:26:29.363Z,42.65
2022-08-29T14:29:33.700Z,42.67
2022-08-29T14:32:35.930Z,42.74
2022-08-29T14:35:37.538Z,43.01
2022-08-29T14:38:44.146Z,43.29
2022-08-29T14:41:46.003Z,43.12
2022-08-29T14:44:47.814Z,42.97
2022-08-29T14:47:49.451Z,42.88
2022-08-29T14:50:51.116Z,43.09
2022-08-29T14:53:54.483Z,43.19
2022-08-29T14:56:56.510Z,43.27
2022-08-29T14:59:58.213Z,43.43
2022-08-29T15:03:00.753Z,43.40
2022-08-29T15:06:05.172Z,43.50
2022-08-29T15:09:06.735Z,43.56
2022-08-29T15:12:10.232Z,43.81
2022-08-29T15:15:21.326Z,43.72
2022-08-29T15:19:31.619Z,43.67
2022-08-29T15:21:59.354Z,43.86
2022-08-29T15:25:02.986Z,43.93
2022-08-29T15:28:05.208Z,44.08
2022-08-29T15:31:07.181Z,44.10
2022-08-29T15:34:09.464Z,43.89
2022-08-29T15:37:11.634Z,43.84
2022-08-29T15:40:13.986Z,43.89
2022-08-29T15:43:15.731Z,43.76
2022-08-29T15:46:18.496Z,43.78
2022-08-29T15:49:22.573Z,43.76
2022-08-29T15:52:26.422Z,43.75
2022-08-29T15:55:28.172Z,43.82
2022-08-29T15:58:29.804Z,43.97
2022-08-29T16:01:41.328Z,44.00
2022-08-29T16:04:46.835Z,44.10
2022-08-29T16:07:48.386Z,44.07
2022-08-29T16:10:50.011Z,44.05
2022-08-29T16:14:08.401Z,43.81
2022-08-29T16:17:15.431Z,43.83
2022-08-29T16:20:16.995Z,43.98
2022-08-29T16:23:18.802Z,43.88
2022-08-29T16:26:22.263Z,44.07
2022-08-29T16:29:26.846Z,44.02
2022-08-29T16:32:28.847Z,44.00
2022-08-29T16:35:30.529Z,44.05
2022-08-29T16:38:33.880Z,44.27
2022-08-29T16:41:36.067Z,44.06
2022-08-29T16:44:38.290Z,44.25
2022-08-29T16:47:40.259Z,44.30
2022-08-29T16:50:45.945Z,44.30
2022-08-29T16:53:47.752Z,44.60
2022-08-29T16:56:49.496Z,44.72
2022-08-29T16:59:51.051Z,45.10
2022-08-29T17:02:52.619Z,45.29
2022-08-29T17:05:54.216Z,45.74
2022-08-29T17:08:56.664Z,46.21
2022-08-29T17:11:59.211Z,46.47
2022-08-29T17:15:04.078Z,46.84
2022-08-29T17:18:06.459Z,47.08
2022-08-29T17:21:08.326Z,47.41
2022-08-29T17:24:11.394Z,47.61
2022-08-29T17:27:17.140Z,48.15
2022-08-29T17:30:22.461Z,48.20
2022-08-29T17:33:26.313Z,48.42
2022-08-29T17:36:39.971Z,48.52
2022-08-29T17:39:45.173Z,48.92
2022-08-29T17:42:53.109Z,49.21
2022-08-29T17:45:56.871Z,49.22
2022-08-29T17:48:58.619Z,49.57
2022-08-29T17:52:00.263Z,49.85
2022-08-29T17:55:06.994Z,49.78
2022-08-29T17:58:09.153Z,49.97
2022-08-29T18:01:16.214Z,50.26
2022-08-29T18:04:18.879Z,50.40
2022-08-29T18:07:23.585Z,50.57
2022-08-29T18:10:26.721Z,50.60
2022-08-29T18:13:28.365Z,50.79
2022-08-29T18:16:30.234Z,50.95
2022-08-29T18:19:31.803Z,51.06
2022-08-29T18:22:33.498Z,51.15
2022-08-29T18:25:35.801Z,51.32
2022-08-29T18:28:37.362Z,51.39
2022-08-29T18:31:41.280Z,51.53
2022-08-29T18:34:43.291Z,51.61
2022-08-29T18:37:46.386Z,51.76
2022-08-29T18:40:53.187Z,51.82
2022-08-29T18:43:55.456Z,51.98
2022-08-29T18:46:57.085Z,52.04
2022-08-29T18:50:17.047Z,52.18
2022-08-29T18:53:21.078Z,52.40
2022-08-29T18:56:22.755Z,52.55
2022-08-29T18:59:24.485Z,52.65
2022-08-29T19:02:26.704Z,52.72
2022-08-29T19:05:31.470Z,52.83
2022-08-29T19:08:33.215Z,52.99
2022-08-29T19:11:34.781Z,53.12
2022-08-29T19:14:45.818Z,53.40
2022-08-29T19:17:48.065Z,53.46
2022-08-29T19:21:02.213Z,53.53
2022-08-29T19:24:04.001Z,53.52
2022-08-29T19:27:17.827Z,53.69
2022-08-29T19:30:28.847Z,53.73
2022-08-29T19:33:31.424Z,53.77
2022-08-29T19:36:34.959Z,53.83
2022-08-29T19:39:36.802Z,54.00
2022-08-29T19:42:38.732Z,54.05
2022-08-29T19:45:42.453Z,54.11
2022-08-29T19:52:04.613Z,54.24
2022-08-29T19:55:09.869Z,54.35
2022-08-29T19:58:11.528Z,54.41
2022-08-29T20:01:16.129Z,54.53
2022-08-29T20:04:18.240Z,54.65
2022-08-29T20:07:20.434Z,54.74
2022-08-29T20:10:24.889Z,54.69
2022-08-29T20:13:32.845Z,54.74
2022-08-29T20:16:37.579Z,54.89
2022-08-29T20:19:40.143Z,54.87
2022-08-29T20:22:41.823Z,54.99
2022-08-29T20:25:45.492Z,55.05
2022-08-29T20:28:48.063Z,55.26
2022-08-29T20:31:50.237Z,55.31
2022-08-29T20:34:51.714Z,55.28
2022-08-29T20:37:53.352Z,55.22
2022-08-29T20:40:55.220Z,55.34
2022-08-29T20:44:00.099Z,55.34
2022-08-29T20:47:02.069Z,55.37
2022-08-29T20:50:09.891Z,55.39
2022-08-29T20:53:14.333Z,55.46
2022-08-29T20:56:32.984Z,55.49
2022-08-29T20:59:37.768Z,55.47
2022-08-29T21:03:00.737Z,55.49
2022-08-29T21:06:04.296Z,55.52
2022-08-29T21:09:05.941Z,55.54
2022-08-29T21:12:07.815Z,55.61
2022-08-29T21:15:13.065Z,55.72
2022-08-29T21:18:16.552Z,55.71
2022-08-29T21:21:24.868Z,55.83
2022-08-29T21:24:28.248Z,55.77
2022-08-29T21:27:30.088Z,55.92
2022-08-29T21:30:32.660Z,55.98
2022-08-29T21:33:39.337Z,56.00
2022-08-29T21:36:41.292Z,56.10
2022-08-29T21:39:45.904Z,56.11
2022-08-29T21:42:47.656Z,56.07
2022-08-29T21:45:49.215Z,56.19
2022-08-29T21:48:56.986Z,56.31
2022-08-29T21:51:58.723Z,56.18
2022-08-29T21:55:01.220Z,56.14
2022-08-29T21:58:03.157Z,56.26
2022-08-29T22:01:05.409Z,56.29
2022-08-29T22:04:10.166Z,56.32
2022-08-29T22:07:12.653Z,56.48
2022-08-29T22:10:19.695Z,56.48
2022-08-29T22:13:21.356Z,56.61
2022-08-29T22:16:29.384Z,56.65
2022-08-29T22:19:31.734Z,56.69
2022-08-29T22:22:34.282Z,56.74
2022-08-29T22:25:36.155Z,56.81
2022-08-29T22:28:37.755Z,56.80
2022-08-29T22:31:42.283Z,56.85
2022-08-29T22:34:44.289Z,56.84
2022-08-29T22:37:45.876Z,56.82
2022-08-29T22:40:47.435Z,56.89
2022-08-29T22:43:54.675Z,56.95
2022-08-29T22:47:10.688Z,56.96
2022-08-29T22:50:15.860Z,57.03
2022-08-29T22:53:17.822Z,57.00
2022-08-29T22:56:19.497Z,57.08
2022-08-29T22:59:21.331Z,57.10
2022-08-29T23:02:23.011Z,57.19
2022-08-29T23:05:24.894Z,57.14
2022-08-29T23:08:26.440Z,57.22
2022-08-29T23:11:28.103Z,57.22
2022-08-29T23:14:29.664Z,57.22
2022-08-29T23:17:31.212Z,57.34
2022-08-29T23:20:32.683Z,57.36
2022-08-29T23:23:34.864Z,57.33
2022-08-29T23:26:37.124Z,57.37
2022-08-29T23:29:41.795Z,57.41
2022-08-29T23:32:43.582Z,57.60
2022-08-29T23:35:45.152Z,57.58
2022-08-29T23:38:47.270Z,57.66
2022-08-29T23:41:51.850Z,57.66
2022-08-29T23:44:53.353Z,57.71
2022-08-29T23:47:54.860Z,57.83
2022-08-29T23:50:56.484Z,57.76
2022-08-29T23:53:58.124Z,57.63
2022-08-29T23:56:59.632Z,57.62
